Report METAR

 

LIRX - Monte Calamita, Italy
Distance from station: SSO 26km
Dati ricevuti: 17/04/2024 23:55

 Vento da SE
Vento: SE 7 km/h
Temperatura: 10°C
Temperatura Vento: 9°C
P.to Rugiada: 5°C
Umidità: 71%
Barometro: 1006 hPa
2024/04/17 21:55 LIRX 172155Z AUTO 13004KT //// 10/05 Q1006
LIRS - Grosseto (it-Afb, Italy
Distance from station: ESE 48km
Dati ricevuti: 17/04/2024 23:55
Few Clouds
Few Clouds
 Vento da N
Vento: N 20 km/h
Temperatura: 8°C
Temperatura Vento: 4°C
P.to Rugiada: 6°C
Umidità: 87%
Barometro: 1007 hPa
Nuvole: Few Clouds
Visibility: 10 km
Cloud details: Few Clouds 762 m
2024/04/17 21:55 LIRS 172155Z 01011KT 9999 FEW025 08/06 Q1007
 
LIQO - Mount Argentario, Italy
Distance from station: SE 82km
Dati ricevuti: 17/04/2024 23:55

 Vento da NNE
Vento: NNE 9 km/h
Temperatura: 8°C
Temperatura Vento: 6°C
P.to Rugiada: 4°C
Umidità: 76%
Barometro: 1006 hPa
2024/04/17 21:55 LIQO 172155Z AUTO 03005KT //// 08/04 Q1006
LIRP - Pisa (civ/It-Afb, Italy
Distance from station: N 82km
Dati ricevuti: 18/04/2024 00:45
Sereno
Sereno
 Vento da E
Vento: E 6 km/h
Temperatura: 10°C
P.to Rugiada: 7°C
Umidità: 82%
Barometro: 1006 hPa
Summary: Sereno
Visibility: superiore a 10 km
2024/04/17 22:45 LIRP 172245Z 09003KT CAVOK 10/07 Q1006 NOSIG
 
LFKB - Bastia/Poretta, France
Distance from station: OSO 98km
Dati ricevuti: 18/04/2024 01:00
Few Clouds
Few Clouds
 Vento da SO
Vento: SO 7 km/h
Temperatura: 10°C
Temperatura Vento: 9°C
P.to Rugiada: 3°C
Umidità: 62%
Barometro: 1006 hPa
Nuvole: Few Clouds
Visibility: 10 km
Cloud details: Few Clouds 975 m
2024/04/17 23:00 LFKB 172300Z AUTO 23004KT 9999 FEW032 10/03 Q1006 NOSIG